Adams, OK (73901)

9:48 AM CDT on October 30, 2014 (GMT -0500)
Turpin School District I-128 | Change Station
CLOSE
Current Station
Personal Weather Station
Location: Turpin, OK
Elevation: 2769 ft
Nearby Weather Stations

Elev 2769 ft 36.86 °N, 100.88 °W | Updated 4 minutes ago

Clear
Clear
51.4 °F
Feels Like 51.4 °F
N
3.1
Wind Variable Wind from North
Gusts 11.0 mph

Today
High -- | Low -- °F
--% Chance of Precip.
Yesterday
High -- | Low -- °F
Precip. -- in
8:06 AM 6:49 PM
Waxing Crescent, 44% visible
Pressure 30.26 in
Visibility 10.0 miles
Clouds Clear
Dew Point 33 °F
Humidity 49%
Rainfall 0.00 in
Snow Depth Not available.
UV 1 out of 12
Pollen 2.40 out of 12
Air Quality Not available.
Flu Activity Not available.
METAR KLBL 301435Z AUTO 30012KT 260V340 10SM CLR 09/00 A3026 RMK AO1

More Conditions Fewer Conditions

Pressure 30.26 in
Visibility 10.0 miles
Clouds Clear
Dew Point 33 °F
Humidity 49%
Rainfall 0.00 in
Snow Depth Not available.
UV 1 out of 12
Pollen 2.40 out of 12
Air Quality Not available.
Flu Activity Not available.
METAR KLBL 301435Z AUTO 30012KT 260V340 10SM CLR 09/00 A3026 RMK AO1

More Conditions Fewer Conditions

10-Day Weather Forecast

Almanac

Astronomy

Oct. 30, 2014 Rise Set
Actual Time
Civil Twilight
Nautical Twilight
Astronomical Twilight
Moon
Length of Visible Light
Length of Day
Tomorrow will be .
, % of the Moon is Illuminated

Today's Extremes

State Highs State Lows

Community

WunderPhotos

Upload Photos

1,766,379 photos uploaded!

WunderBlogs® & News

Nearby

Air Quality

  Air Quality AQ Index Pollutant
Not available.

Snow Depth

Station Depth Elevation

Earthquake Activity

City Distance Mag. Time & Date
Minimum magnitude displayed is 2.5.

Coastal Water Temperatures

Place Temperature

Nearby Weather Stations